createdAt,value
2019-01-12T00:03:46.614Z,0.10
2019-01-12T00:06:27.511Z,0.00
2019-01-12T00:09:08.985Z,0.10
2019-01-12T00:11:49.704Z,0.20
2019-01-12T00:14:30.597Z,0.20
2019-01-12T00:17:12.067Z,0.10
2019-01-12T00:19:52.905Z,0.00
2019-01-12T00:22:33.587Z,0.10
2019-01-12T00:25:15.213Z,0.10
2019-01-12T00:27:56.698Z,0.10
2019-01-12T00:30:37.378Z,0.20
2019-01-12T00:33:18.082Z,0.10
2019-01-12T00:35:58.900Z,0.20
2019-01-12T00:38:39.701Z,0.10
2019-01-12T00:41:21.394Z,0.20
2019-01-12T00:44:02.293Z,0.10
2019-01-12T00:46:43.024Z,0.20
2019-01-12T00:49:24.473Z,0.10
2019-01-12T00:52:06.015Z,0.20
2019-01-12T00:54:46.690Z,0.20
2019-01-12T00:57:28.291Z,0.00
2019-01-12T01:00:09.025Z,0.20
2019-01-12T01:02:49.973Z,0.30
2019-01-12T01:05:31.293Z,0.10
2019-01-12T01:08:12.048Z,0.10
2019-01-12T01:10:52.701Z,0.10
2019-01-12T01:13:33.848Z,0.20
2019-01-12T01:16:15.286Z,0.20
2019-01-12T01:18:56.198Z,0.20
2019-01-12T01:21:36.895Z,0.20
2019-01-12T01:24:17.890Z,0.20
2019-01-12T01:26:59.384Z,0.10
2019-01-12T01:29:41.068Z,0.20
2019-01-12T01:32:22.646Z,0.20
2019-01-12T01:35:04.153Z,0.20
2019-01-12T01:37:45.824Z,0.20
2019-01-12T01:40:27.403Z,0.20
2019-01-12T01:43:08.118Z,0.20
2019-01-12T01:45:49.561Z,0.10
2019-01-12T01:48:30.898Z,0.10
2019-01-12T01:51:12.286Z,0.20
2019-01-12T01:53:53.086Z,0.20
2019-01-12T01:56:34.555Z,0.20
2019-01-12T01:59:15.949Z,0.10
2019-01-12T02:01:56.686Z,0.20
2019-01-12T02:04:37.446Z,0.20
2019-01-12T02:07:18.963Z,0.20
2019-01-12T02:09:59.641Z,0.30
2019-01-12T02:12:40.421Z,0.20
2019-01-12T02:15:21.958Z,0.30
2019-01-12T02:18:02.662Z,0.20
2019-01-12T02:20:43.629Z,0.30
2019-01-12T02:23:25.194Z,0.30
2019-01-12T02:26:06.103Z,0.20
2019-01-12T02:28:47.740Z,0.30
2019-01-12T02:31:29.135Z,0.30
2019-01-12T02:34:10.748Z,0.30
2019-01-12T02:36:52.098Z,0.20
2019-01-12T02:39:32.933Z,0.30
2019-01-12T02:42:13.712Z,0.30
2019-01-12T02:44:55.255Z,0.30
2019-01-12T02:47:36.008Z,0.30
2019-01-12T02:50:16.769Z,0.30
2019-01-12T02:52:57.612Z,0.30
2019-01-12T02:55:38.861Z,0.30
2019-01-12T02:58:19.583Z,0.30
2019-01-12T03:01:00.560Z,0.30
2019-01-12T03:03:41.289Z,0.40
2019-01-12T03:06:22.018Z,0.40
2019-01-12T03:09:04.247Z,0.40
2019-01-12T03:11:45.430Z,0.40
2019-01-12T03:14:26.131Z,0.30
2019-01-12T03:17:07.659Z,0.40
2019-01-12T03:19:49.237Z,0.30
2019-01-12T03:22:30.628Z,0.30
2019-01-12T03:25:17.521Z,0.40
2019-01-12T03:27:55.379Z,0.40
2019-01-12T03:30:36.728Z,0.30
2019-01-12T03:33:17.980Z,0.30
2019-01-12T03:35:59.364Z,0.30
2019-01-12T03:38:40.072Z,0.40
2019-01-12T03:41:21.669Z,0.40
2019-01-12T03:44:03.188Z,0.30
2019-01-12T03:46:44.740Z,0.40
2019-01-12T03:49:25.412Z,0.40
2019-01-12T03:52:06.994Z,0.40
2019-01-12T03:54:48.585Z,0.40
2019-01-12T03:57:30.273Z,0.40
2019-01-12T04:00:11.837Z,0.40
2019-01-12T04:02:53.405Z,0.40
2019-01-12T04:05:34.861Z,0.40
2019-01-12T04:08:16.489Z,0.30
2019-01-12T04:10:58.094Z,0.40
2019-01-12T04:13:39.618Z,0.40
2019-01-12T04:16:21.273Z,0.30
2019-01-12T04:19:02.659Z,0.40
2019-01-12T04:21:43.420Z,0.50
2019-01-12T04:24:24.932Z,0.50
2019-01-12T04:27:05.601Z,0.40
2019-01-12T04:29:46.343Z,0.50
2019-01-12T04:32:27.181Z,0.40
2019-01-12T04:35:08.731Z,0.40
2019-01-12T04:37:49.494Z,0.40
2019-01-12T04:40:30.950Z,0.40
2019-01-12T04:43:11.888Z,0.40
2019-01-12T04:45:53.393Z,0.40
2019-01-12T04:48:34.273Z,0.40
2019-01-12T04:51:15.773Z,0.30
2019-01-12T04:53:56.687Z,0.50
2019-01-12T04:56:37.592Z,0.40
2019-01-12T04:59:18.315Z,0.40
2019-01-12T05:01:59.030Z,0.30
2019-01-12T05:04:40.567Z,0.50
2019-01-12T05:07:22.064Z,0.40
2019-01-12T05:10:02.795Z,0.40
2019-01-12T05:12:44.479Z,0.40
2019-01-12T05:15:25.498Z,0.40
2019-01-12T05:18:06.299Z,0.40
2019-01-12T05:20:47.131Z,0.40
2019-01-12T05:23:28.763Z,0.50
2019-01-12T05:26:09.510Z,0.50
2019-01-12T05:28:50.244Z,0.40
2019-01-12T05:31:31.746Z,0.50
2019-01-12T05:34:13.153Z,0.50
2019-01-12T05:36:53.795Z,0.50
2019-01-12T05:39:34.615Z,0.60
2019-01-12T05:42:15.580Z,0.60
2019-01-12T05:44:56.567Z,0.60
2019-01-12T05:47:37.348Z,0.50
2019-01-12T05:50:18.266Z,0.50
2019-01-12T05:52:58.952Z,0.50
2019-01-12T05:55:40.085Z,0.50
2019-01-12T05:58:20.859Z,0.50
2019-01-12T06:01:02.362Z,0.50
2019-01-12T06:03:43.360Z,0.50
2019-01-12T06:06:24.114Z,0.50
2019-01-12T06:09:05.034Z,0.50
2019-01-12T06:11:46.525Z,0.50
2019-01-12T06:14:27.914Z,0.50
2019-01-12T06:17:08.599Z,0.50
2019-01-12T06:19:50.065Z,0.50
2019-01-12T06:22:30.919Z,0.50
2019-01-12T06:25:12.522Z,0.50
2019-01-12T06:27:53.271Z,0.50
2019-01-12T06:30:34.548Z,0.60
2019-01-12T06:33:16.055Z,0.60
2019-01-12T06:35:57.579Z,0.60
2019-01-12T06:38:39.054Z,0.50
2019-01-12T06:41:20.015Z,0.60
2019-01-12T06:44:00.726Z,0.60
2019-01-12T06:46:41.461Z,0.60
2019-01-12T06:49:22.379Z,0.50
2019-01-12T06:52:03.741Z,0.60
2019-01-12T06:54:44.746Z,0.50
2019-01-12T06:57:25.514Z,0.50
2019-01-12T07:00:06.977Z,0.50
2019-01-12T07:02:47.574Z,0.60
2019-01-12T07:05:28.329Z,0.60
2019-01-12T07:08:09.659Z,0.60
2019-01-12T07:10:51.041Z,0.60
2019-01-12T07:13:32.592Z,0.60
2019-01-12T07:16:13.906Z,0.60
2019-01-12T07:18:55.380Z,0.60
2019-01-12T07:21:36.113Z,0.60
2019-01-12T07:24:16.778Z,0.60
2019-01-12T07:26:58.210Z,0.60
2019-01-12T07:29:39.629Z,0.60
2019-01-12T07:32:21.018Z,0.70
2019-01-12T07:35:02.404Z,0.70
2019-01-12T07:37:43.818Z,0.70
2019-01-12T07:40:24.556Z,0.70
2019-01-12T07:43:05.408Z,0.70
2019-01-12T07:45:46.085Z,0.70
2019-01-12T07:48:26.804Z,0.70
2019-01-12T07:51:07.776Z,0.70
2019-01-12T07:53:49.108Z,0.80
2019-01-12T07:56:29.718Z,0.80
2019-01-12T07:59:11.219Z,0.70
2019-01-12T08:01:52.628Z,0.70
2019-01-12T08:04:34.021Z,0.70
2019-01-12T08:07:14.785Z,0.80
2019-01-12T08:09:56.158Z,0.70
2019-01-12T08:12:37.777Z,0.80
2019-01-12T08:15:19.042Z,0.80
2019-01-12T08:18:00.295Z,0.80
2019-01-12T08:20:41.775Z,0.80
2019-01-12T08:23:23.225Z,0.80
2019-01-12T08:26:04.760Z,0.80
2019-01-12T08:28:45.668Z,0.80
2019-01-12T08:31:26.372Z,0.80
2019-01-12T08:34:07.877Z,0.80
2019-01-12T08:36:48.808Z,0.90
2019-01-12T08:39:29.601Z,0.90
2019-01-12T08:42:10.322Z,0.80
2019-01-12T08:44:51.925Z,0.90
2019-01-12T08:47:33.377Z,0.90
2019-01-12T08:50:14.895Z,0.90
2019-01-12T08:52:55.595Z,0.90
2019-01-12T08:55:37.051Z,0.90
2019-01-12T08:58:17.753Z,0.90
2019-01-12T09:00:59.272Z,0.90
2019-01-12T09:03:39.982Z,0.90
2019-01-12T09:06:21.404Z,0.90
2019-01-12T09:09:02.630Z,1.00
2019-01-12T09:11:43.347Z,1.00
2019-01-12T09:14:24.018Z,1.00
2019-01-12T09:17:04.971Z,1.00
2019-01-12T09:19:46.478Z,1.00
2019-01-12T09:22:27.305Z,1.00
2019-01-12T09:25:08.737Z,1.00
2019-01-12T09:27:50.194Z,1.00
2019-01-12T09:30:30.966Z,1.00
2019-01-12T09:33:11.732Z,1.10
2019-01-12T09:35:53.251Z,1.10
2019-01-12T09:38:34.662Z,1.10
2019-01-12T09:41:16.218Z,1.20
2019-01-12T09:43:57.077Z,1.20
2019-01-12T09:46:37.825Z,1.20
2019-01-12T09:49:18.590Z,1.20
2019-01-12T09:52:00.091Z,1.20
2019-01-12T09:54:41.615Z,1.30
2019-01-12T09:57:22.405Z,1.30
2019-01-12T10:00:03.886Z,1.40
2019-01-12T10:02:45.474Z,1.30
2019-01-12T10:05:26.189Z,1.30
2019-01-12T10:08:07.785Z,1.40
2019-01-12T10:10:48.743Z,1.40
2019-01-12T10:13:30.329Z,1.40
2019-01-12T10:16:11.651Z,1.40
2019-01-12T10:18:52.430Z,1.40
2019-01-12T10:21:33.135Z,1.40
2019-01-12T10:24:14.446Z,1.40
2019-01-12T10:26:58.716Z,1.40
2019-01-12T10:29:37.726Z,1.50
2019-01-12T10:32:19.306Z,1.40
2019-01-12T10:34:59.997Z,1.50
2019-01-12T10:37:41.491Z,1.50
2019-01-12T10:40:22.248Z,1.50
2019-01-12T10:43:02.929Z,1.50
2019-01-12T10:45:44.339Z,1.50
2019-01-12T10:48:25.909Z,1.40
2019-01-12T10:51:07.332Z,1.50
2019-01-12T10:53:47.978Z,1.60
2019-01-12T10:56:29.300Z,1.60
2019-01-12T10:59:10.082Z,1.50
2019-01-12T11:01:51.320Z,1.50
2019-01-12T11:04:32.001Z,1.50
2019-01-12T11:07:12.618Z,1.60
2019-01-12T11:09:53.962Z,1.70
2019-01-12T11:12:35.288Z,1.80
2019-01-12T11:15:17.111Z,1.80
2019-01-12T11:17:58.489Z,1.80
2019-01-12T11:20:40.181Z,1.90
2019-01-12T11:23:21.690Z,2.00
2019-01-12T11:26:03.201Z,2.00
2019-01-12T11:28:44.025Z,2.00
2019-01-12T11:31:24.836Z,1.90
2019-01-12T11:34:05.745Z,1.90
2019-01-12T11:36:46.646Z,1.90
2019-01-12T11:39:27.525Z,1.90
2019-01-12T11:42:08.431Z,1.90
2019-01-12T11:44:49.166Z,1.90
2019-01-12T11:47:30.039Z,1.90
2019-01-12T11:53:16.546Z,2.00
2019-01-12T11:55:57.951Z,2.10
2019-01-12T11:58:38.826Z,2.10
2019-01-12T12:01:20.014Z,2.00
2019-01-12T12:04:01.293Z,2.10
2019-01-12T12:06:42.823Z,2.00
2019-01-12T12:09:23.633Z,2.10
2019-01-12T12:12:05.108Z,2.20
2019-01-12T12:14:46.609Z,2.20
2019-01-12T12:17:28.241Z,2.20
2019-01-12T12:20:09.649Z,2.10
2019-01-12T12:22:51.274Z,2.10
2019-01-12T12:25:32.000Z,2.20
2019-01-12T12:28:13.569Z,2.20
2019-01-12T12:30:54.397Z,2.20
2019-01-12T12:33:36.002Z,2.20
2019-01-12T12:36:16.848Z,2.30
2019-01-12T12:38:58.377Z,2.20
2019-01-12T12:41:39.918Z,2.20
2019-01-12T12:44:21.248Z,2.30
2019-01-12T12:47:02.118Z,2.20
2019-01-12T12:49:43.595Z,2.20
2019-01-12T12:52:25.193Z,2.20
2019-01-12T12:55:05.932Z,2.20
2019-01-12T12:57:47.519Z,2.20
2019-01-12T13:00:28.348Z,2.30
2019-01-12T13:03:09.061Z,2.20
2019-01-12T13:05:50.677Z,2.20
2019-01-12T13:08:31.698Z,2.30
2019-01-12T13:11:13.126Z,2.30
2019-01-12T13:13:53.914Z,2.20
2019-01-12T13:16:35.492Z,2.30
2019-01-12T13:19:16.273Z,2.20
2019-01-12T13:21:57.665Z,2.20
2019-01-12T13:24:38.941Z,2.20
2019-01-12T13:27:20.509Z,2.10
2019-01-12T13:30:01.990Z,2.20
2019-01-12T13:35:48.718Z,2.30
2019-01-12T13:38:30.096Z,2.30
2019-01-12T13:41:10.894Z,2.30
2019-01-12T13:43:52.534Z,2.30
2019-01-12T13:46:33.197Z,2.30
2019-01-12T13:49:14.588Z,2.30
2019-01-12T13:51:55.494Z,2.20
2019-01-12T13:54:36.793Z,2.20
2019-01-12T13:57:17.459Z,2.20
2019-01-12T13:59:58.250Z,2.20
2019-01-12T14:02:39.879Z,2.20
2019-01-12T14:05:21.259Z,2.20
2019-01-12T14:08:02.817Z,2.20
2019-01-12T14:10:43.455Z,2.10
2019-01-12T14:13:24.262Z,2.10
2019-01-12T14:18:48.777Z,2.10
2019-01-12T14:21:29.545Z,2.10
2019-01-12T14:24:10.982Z,2.10
2019-01-12T14:26:52.577Z,2.10
2019-01-12T14:29:33.441Z,2.20
2019-01-12T14:32:14.181Z,2.10
2019-01-12T14:34:54.832Z,2.00
2019-01-12T14:37:36.395Z,2.10
2019-01-12T14:40:17.881Z,2.00
2019-01-12T14:42:59.422Z,2.10
2019-01-12T14:45:40.886Z,2.00
2019-01-12T14:48:22.492Z,2.10
2019-01-12T14:51:04.160Z,2.00
2019-01-12T14:53:45.692Z,2.00
2019-01-12T14:56:26.350Z,2.00
2019-01-12T14:59:07.632Z,2.00
2019-01-12T15:01:48.462Z,2.00
2019-01-12T15:04:29.124Z,2.00
2019-01-12T15:07:09.851Z,2.00
2019-01-12T15:09:50.461Z,2.00
2019-01-12T15:12:31.830Z,2.00
2019-01-12T15:15:13.234Z,1.90
2019-01-12T15:17:54.796Z,1.90
2019-01-12T15:20:36.286Z,1.90
2019-01-12T15:23:17.698Z,1.90
2019-01-12T15:25:59.230Z,1.90
2019-01-12T15:28:40.745Z,1.90
2019-01-12T15:31:21.634Z,1.90
2019-01-12T15:34:03.241Z,1.90
2019-01-12T15:36:44.550Z,1.90
2019-01-12T15:39:25.158Z,1.90
2019-01-12T15:42:06.638Z,1.90
2019-01-12T15:44:47.950Z,1.80
2019-01-12T15:47:29.268Z,1.80
2019-01-12T15:50:10.833Z,1.90
2019-01-12T15:52:51.638Z,1.80
2019-01-12T15:55:32.420Z,1.90
2019-01-12T15:58:16.356Z,1.80
2019-01-12T16:00:56.527Z,1.90
2019-01-12T16:03:38.007Z,1.80
2019-01-12T16:06:18.752Z,1.80
2019-01-12T16:09:00.250Z,1.80
2019-01-12T16:11:41.039Z,1.80
2019-01-12T16:14:22.549Z,1.80
2019-01-12T16:17:04.165Z,1.80
2019-01-12T16:19:45.705Z,1.80
2019-01-12T16:22:26.765Z,1.80
2019-01-12T16:25:07.517Z,1.80
2019-01-12T16:27:49.035Z,1.70
2019-01-12T16:30:30.466Z,1.70
2019-01-12T16:33:12.011Z,1.70
2019-01-12T16:35:53.595Z,1.70
2019-01-12T16:38:34.349Z,1.70
2019-01-12T16:41:15.080Z,1.70
2019-01-12T16:43:56.390Z,1.70
2019-01-12T16:46:37.230Z,1.70
2019-01-12T16:49:18.794Z,1.70
2019-01-12T16:51:59.809Z,1.70
2019-01-12T16:54:41.413Z,1.70
2019-01-12T16:57:23.060Z,1.70
2019-01-12T17:00:03.929Z,1.70
2019-01-12T17:02:45.306Z,1.70
2019-01-12T17:05:26.927Z,1.70
2019-01-12T17:08:07.878Z,1.70
2019-01-12T17:10:48.816Z,1.70
2019-01-12T17:13:29.573Z,1.70
2019-01-12T17:16:11.219Z,1.70
2019-01-12T17:18:51.886Z,1.60
2019-01-12T17:21:32.827Z,1.70
2019-01-12T17:24:14.183Z,1.70
2019-01-12T17:26:54.965Z,1.70
2019-01-12T17:29:35.700Z,1.70
2019-01-12T17:32:16.401Z,1.70
2019-01-12T17:34:57.205Z,1.70
2019-01-12T17:37:38.532Z,1.70
2019-01-12T17:40:19.830Z,1.60
2019-01-12T17:43:01.437Z,1.60
2019-01-12T17:45:42.273Z,1.70
2019-01-12T17:48:23.814Z,1.60
2019-01-12T17:51:04.410Z,1.60
2019-01-12T17:53:45.242Z,1.60
2019-01-12T17:56:25.920Z,1.70
2019-01-12T17:59:07.389Z,1.70
2019-01-12T18:01:48.426Z,1.60
2019-01-12T18:04:29.814Z,1.60
2019-01-12T18:07:11.124Z,1.70
2019-01-12T18:09:52.698Z,1.70
2019-01-12T18:12:33.410Z,1.70
2019-01-12T18:15:14.025Z,1.60
2019-01-12T18:17:54.693Z,1.60
2019-01-12T18:20:36.169Z,1.60
2019-01-12T18:23:17.636Z,1.60
2019-01-12T18:25:59.101Z,1.60
2019-01-12T18:28:40.599Z,1.60
2019-01-12T18:31:22.015Z,1.60
2019-01-12T18:34:02.696Z,1.60
2019-01-12T18:36:43.369Z,1.60
2019-01-12T18:39:24.085Z,1.60
2019-01-12T18:42:05.562Z,1.60
2019-01-12T18:44:47.102Z,1.60
2019-01-12T18:47:27.882Z,1.60
2019-01-12T18:50:08.582Z,1.60
2019-01-12T18:52:49.408Z,1.50
2019-01-12T18:55:30.092Z,1.60
2019-01-12T18:58:11.628Z,1.60
2019-01-12T19:00:53.166Z,1.60
2019-01-12T19:03:34.729Z,1.50
2019-01-12T19:06:16.198Z,1.60
2019-01-12T19:08:57.852Z,1.60
2019-01-12T19:11:38.539Z,1.50
2019-01-12T19:14:19.989Z,1.50
2019-01-12T19:17:00.816Z,1.50
2019-01-12T19:19:41.602Z,1.50
2019-01-12T19:22:22.253Z,1.50
2019-01-12T19:25:03.866Z,1.50
2019-01-12T19:27:45.440Z,1.60
2019-01-12T19:30:26.153Z,1.50
2019-01-12T19:33:06.899Z,1.50
2019-01-12T19:35:48.413Z,1.50
2019-01-12T19:38:29.844Z,1.50
2019-01-12T19:41:10.618Z,1.50
2019-01-12T19:43:51.515Z,1.40
2019-01-12T19:46:32.199Z,1.50
2019-01-12T19:49:13.292Z,1.50
2019-01-12T19:51:54.330Z,1.60
2019-01-12T19:54:35.178Z,1.50
2019-01-12T19:57:16.637Z,1.50
2019-01-12T19:59:57.318Z,1.40
2019-01-12T20:02:38.419Z,1.40
2019-01-12T20:05:19.870Z,1.50
2019-01-12T20:08:01.348Z,1.40
2019-01-12T20:10:42.031Z,1.40
2019-01-12T20:13:23.846Z,1.40
2019-01-12T20:16:04.639Z,1.40
2019-01-12T20:18:46.019Z,1.50
2019-01-12T20:21:26.958Z,1.40
2019-01-12T20:24:08.257Z,1.40
2019-01-12T20:26:48.970Z,1.50
2019-01-12T20:29:30.482Z,1.50
2019-01-12T20:32:12.029Z,1.50
2019-01-12T20:34:53.464Z,1.50
2019-01-12T20:37:34.290Z,1.50
2019-01-12T20:40:15.001Z,1.50
2019-01-12T20:42:56.418Z,1.50
2019-01-12T20:45:37.278Z,1.40
2019-01-12T20:48:18.057Z,1.40
2019-01-12T20:50:59.154Z,1.50
2019-01-12T20:53:40.670Z,1.40
2019-01-12T20:56:22.337Z,1.40
2019-01-12T20:59:03.140Z,1.40
2019-01-12T21:01:44.063Z,1.50
2019-01-12T21:04:25.649Z,1.40
2019-01-12T21:07:07.022Z,1.40
2019-01-12T21:09:47.656Z,1.40
2019-01-12T21:12:29.102Z,1.50
2019-01-12T21:15:09.931Z,1.40
2019-01-12T21:17:51.449Z,1.40
2019-01-12T21:20:32.182Z,1.50
2019-01-12T21:23:12.840Z,1.40
2019-01-12T21:25:54.401Z,1.30
2019-01-12T21:28:35.139Z,1.40
2019-01-12T21:31:16.530Z,1.40
2019-01-12T21:33:57.982Z,1.40
2019-01-12T21:36:38.946Z,1.40
2019-01-12T21:39:20.487Z,1.40
2019-01-12T21:42:02.057Z,1.40
2019-01-12T21:44:42.726Z,1.40
2019-01-12T21:47:23.524Z,1.40
2019-01-12T21:50:05.055Z,1.40
2019-01-12T21:52:45.900Z,1.40
2019-01-12T21:55:27.306Z,1.40
2019-01-12T21:58:08.692Z,1.40
2019-01-12T22:00:49.545Z,1.40
2019-01-12T22:03:30.419Z,1.40
2019-01-12T22:06:11.972Z,1.40
2019-01-12T22:08:52.798Z,1.40
2019-01-12T22:11:33.465Z,1.40
2019-01-12T22:14:14.838Z,1.40
2019-01-12T22:16:56.425Z,1.40
2019-01-12T22:19:37.093Z,1.40
2019-01-12T22:22:18.666Z,1.40
2019-01-12T22:24:59.931Z,1.40
2019-01-12T22:27:40.816Z,1.40
2019-01-12T22:30:21.672Z,1.40
2019-01-12T22:33:02.337Z,1.40
2019-01-12T22:35:43.000Z,1.40
2019-01-12T22:38:23.614Z,1.30
2019-01-12T22:41:05.125Z,1.40
2019-01-12T22:43:45.849Z,1.40
2019-01-12T22:46:26.821Z,1.30
2019-01-12T22:49:07.625Z,1.40
2019-01-12T22:51:49.046Z,1.30
2019-01-12T22:54:30.643Z,1.30
2019-01-12T22:57:11.547Z,1.40
2019-01-12T22:59:56.919Z,1.40
2019-01-12T23:02:35.216Z,1.40
2019-01-12T23:05:15.922Z,1.40
2019-01-12T23:07:56.865Z,1.30
2019-01-12T23:10:38.214Z,1.40
2019-01-12T23:13:19.067Z,1.40
2019-01-12T23:16:00.350Z,1.40
2019-01-12T23:18:41.755Z,1.40
2019-01-12T23:21:22.485Z,1.40
2019-01-12T23:24:03.194Z,1.40
2019-01-12T23:26:43.872Z,1.40
2019-01-12T23:29:24.539Z,1.40
2019-01-12T23:32:05.411Z,1.40
2019-01-12T23:34:46.843Z,1.40
2019-01-12T23:37:27.563Z,1.30
2019-01-12T23:40:08.461Z,1.40
2019-01-12T23:42:50.083Z,1.40
2019-01-12T23:45:30.696Z,1.30
2019-01-12T23:48:11.376Z,1.40
2019-01-12T23:50:52.977Z,1.40
2019-01-12T23:53:34.578Z,1.40
2019-01-12T23:56:16.094Z,1.40
2019-01-12T23:58:57.565Z,1.40
